Time;durP1;ratioP1;P1;durP2;ratioP2;P2;SDS_P1;SDS_P2;PMS_P1;PMS_P2;Temp;Humidity;BMP_temperature;BMP_pressure;BME280_temperature;BME280_humidity;BME280_pressure;Samples;Min_cycle;Max_cycle;Signal;HPM_P1;HPM_P2
2023/07/05 05:06:52;;;;;;;3.50;1.90;;;;;;;;;;13015693;22;20019;-90
2023/07/05 05:12:04;;;;;;;3.30;2.00;;;;;;;;;;13013777;22;20023;-91
2023/07/05 05:17:12;;;;;;;4.22;2.40;;;;;;;;;;13042885;22;20027;-90
2023/07/05 05:22:17;;;;;;;2.67;1.90;;;;;;;;;;13014038;22;20027;-90
2023/07/05 05:27:25;;;;;;;6.07;3.00;;;;;;;;;;13010487;22;20027;-91
2023/07/05 05:32:31;;;;;;;3.58;2.55;;;;;;;;;;13015401;22;20023;-91
2023/07/05 05:37:43;;;;;;;4.50;2.72;;;;;;;;;;13014640;22;20025;-91
2023/07/05 05:42:48;;;;;;;6.50;2.70;;;;;;;;;;13020786;22;20019;-90
2023/07/05 05:48:14;;;;;;;5.17;3.10;;;;;;;;;;13010534;22;20015;-94
2023/07/05 05:54:14;;;;;;;4.75;3.20;;;;;;;;;;13034196;22;20023;-94
2023/07/05 06:07:07;;;;;;;6.07;2.70;;;;;;;;;;12697026;22;20047;-93
2023/07/05 12:51:23;;;;;;;3.00;1.20;;;;;;;;;;13022333;22;20240;-92
2023/07/05 12:56:33;;;;;;;4.22;1.77;;;;;;;;;;13022837;22;20023;-92
2023/07/05 13:01:40;;;;;;;5.20;1.33;;;;;;;;;;13021951;22;20057;-92
2023/07/05 13:06:47;;;;;;;5.15;1.42;;;;;;;;;;13021172;22;20050;-92
2023/07/05 13:11:58;;;;;;;3.95;1.02;;;;;;;;;;13022445;22;20023;-91
2023/07/05 13:17:17;;;;;;;4.88;1.10;;;;;;;;;;13021911;22;20027;-91
2023/07/05 13:22:26;;;;;;;3.55;1.30;;;;;;;;;;13022090;22;20023;-92
2023/07/05 13:27:32;;;;;;;4.10;1.30;;;;;;;;;;13022309;22;20019;-91
2023/07/05 13:32:39;;;;;;;3.00;1.30;;;;;;;;;;13021307;22;20023;-92
2023/07/05 13:37:44;;;;;;;4.93;1.65;;;;;;;;;;13022107;22;20050;-92
2023/07/05 13:42:48;;;;;;;3.30;1.57;;;;;;;;;;13021336;22;20027;-91
2023/07/05 13:47:52;;;;;;;2.88;1.42;;;;;;;;;;13021742;22;20069;-91
2023/07/05 13:52:57;;;;;;;6.70;1.70;;;;;;;;;;13048591;22;20015;-91
2023/07/05 13:58:02;;;;;;;2.10;1.00;;;;;;;;;;13020569;22;20020;-92
2023/07/05 14:03:06;;;;;;;3.05;1.50;;;;;;;;;;13049467;22;20089;-91
2023/07/05 14:08:16;;;;;;;4.07;1.50;;;;;;;;;;13022105;22;20205;-91
2023/07/05 14:13:21;;;;;;;1.80;0.93;;;;;;;;;;13049295;22;20025;-92
2023/07/05 14:18:24;;;;;;;2.50;1.10;;;;;;;;;;13021449;22;20030;-92
2023/07/05 14:23:29;;;;;;;4.03;1.30;;;;;;;;;;13022082;22;20023;-93
2023/07/05 14:28:34;;;;;;;2.70;1.65;;;;;;;;;;13021669;22;20022;-92
2023/07/05 14:33:39;;;;;;;2.22;1.33;;;;;;;;;;13020437;22;20020;-90
2023/07/05 14:38:45;;;;;;;2.50;1.40;;;;;;;;;;13065296;22;20027;-92
2023/07/05 14:43:49;;;;;;;4.90;1.30;;;;;;;;;;13019185;22;20460;-92
2023/07/05 14:48:52;;;;;;;4.03;1.52;;;;;;;;;;13018145;22;20468;-92
2023/07/05 14:53:57;;;;;;;3.97;1.83;;;;;;;;;;13019150;22;20026;-90
2023/07/05 14:59:01;;;;;;;2.38;1.45;;;;;;;;;;13019449;22;20023;-91
2023/07/05 15:04:04;;;;;;;3.92;1.50;;;;;;;;;;13047595;22;20027;-91
2023/07/05 15:09:11;;;;;;;3.50;1.58;;;;;;;;;;13020644;22;20023;-89
2023/07/05 15:14:14;;;;;;;2.45;1.42;;;;;;;;;;13020588;22;20359;-91
2023/07/05 15:19:23;;;;;;;2.00;1.15;;;;;;;;;;13020093;22;20407;-92
2023/07/05 15:24:27;;;;;;;2.28;1.40;;;;;;;;;;13062178;22;20409;-90
2023/07/05 15:29:31;;;;;;;3.72;1.70;;;;;;;;;;13021611;22;20027;-91
2023/07/05 15:34:34;;;;;;;2.85;1.55;;;;;;;;;;13045725;22;20033;-91
2023/07/05 15:39:39;;;;;;;3.95;1.90;;;;;;;;;;13018126;22;20069;-91
2023/07/05 15:44:46;;;;;;;2.28;1.88;;;;;;;;;;13017378;22;20027;-92
2023/07/05 15:49:51;;;;;;;3.80;1.80;;;;;;;;;;13018697;22;20023;-91
2023/07/05 15:54:55;;;;;;;3.10;1.95;;;;;;;;;;13046867;22;20085;-92
2023/07/05 16:00:03;;;;;;;2.97;1.65;;;;;;;;;;13019619;22;20027;-91
2023/07/05 16:05:10;;;;;;;4.70;1.90;;;;;;;;;;13046578;22;20026;-91
2023/07/05 16:10:16;;;;;;;5.75;1.73;;;;;;;;;;13019853;22;20027;-92
2023/07/05 16:15:20;;;;;;;3.97;1.75;;;;;;;;;;13047370;22;20023;-92
2023/07/05 16:20:23;;;;;;;3.78;1.92;;;;;;;;;;13046304;22;20030;-91
2023/07/05 16:25:30;;;;;;;3.65;2.17;;;;;;;;;;13046501;22;20031;-91
2023/07/05 16:30:33;;;;;;;3.42;1.50;;;;;;;;;;13056930;22;20577;-91
2023/07/05 16:35:37;;;;;;;3.97;1.40;;;;;;;;;;13047425;22;20058;-92
2023/07/05 16:40:42;;;;;;;3.88;1.35;;;;;;;;;;13055982;22;20042;-91
2023/07/05 16:45:45;;;;;;;2.70;1.98;;;;;;;;;;13020338;22;20023;-91
2023/07/05 16:50:49;;;;;;;4.82;1.55;;;;;;;;;;13048781;22;20077;-91
2023/07/05 16:55:56;;;;;;;1.83;1.50;;;;;;;;;;13025388;22;20529;-91
2023/07/05 17:01:01;;;;;;;4.65;1.40;;;;;;;;;;13024265;22;20080;-90
2023/07/05 17:06:07;;;;;;;1.35;1.05;;;;;;;;;;13024127;22;20049;-92
2023/07/05 17:11:13;;;;;;;4.20;0.98;;;;;;;;;;13023545;22;20058;-90
2023/07/05 17:16:17;;;;;;;4.90;1.00;;;;;;;;;;13024748;22;20027;-90
2023/07/05 17:21:20;;;;;;;5.25;1.38;;;;;;;;;;13024188;22;20029;-90
2023/07/05 17:26:25;;;;;;;2.22;1.25;;;;;;;;;;13023909;22;20027;-91
2023/07/05 17:31:29;;;;;;;2.00;0.95;;;;;;;;;;13023707;22;20081;-90
2023/07/05 17:36:36;;;;;;;2.42;1.08;;;;;;;;;;13051469;22;20097;-91
2023/07/05 17:41:40;;;;;;;3.17;1.02;;;;;;;;;;13023372;22;20492;-90
2023/07/05 17:46:45;;;;;;;2.10;0.88;;;;;;;;;;13023211;22;20529;-90
2023/07/05 17:51:49;;;;;;;1.40;0.90;;;;;;;;;;13052211;22;20073;-91
2023/07/05 17:56:54;;;;;;;1.10;0.70;;;;;;;;;;13023107;22;20023;-90
2023/07/05 18:01:58;;;;;;;1.02;0.60;;;;;;;;;;13049663;22;20525;-90
2023/07/05 18:07:01;;;;;;;1.67;0.77;;;;;;;;;;13023007;22;20406;-91
2023/07/05 18:12:07;;;;;;;1.73;0.63;;;;;;;;;;13048854;22;20356;-90
2023/07/05 18:17:11;;;;;;;3.00;0.90;;;;;;;;;;13023773;22;20383;-91
2023/07/05 18:22:14;;;;;;;2.10;1.27;;;;;;;;;;13022124;22;20030;-91
2023/07/05 18:27:19;;;;;;;2.40;1.20;;;;;;;;;;13022298;22;20491;-91
2023/07/05 18:32:23;;;;;;;2.05;0.98;;;;;;;;;;13022561;22;20023;-90
2023/07/05 18:37:26;;;;;;;1.88;0.70;;;;;;;;;;13022501;22;20019;-91
2023/07/05 18:42:31;;;;;;;3.50;1.48;;;;;;;;;;13050674;22;20034;-91
2023/07/05 18:47:34;;;;;;;1.55;0.60;;;;;;;;;;13021706;22;20027;-90
2023/07/05 18:52:38;;;;;;;1.83;1.00;;;;;;;;;;13048856;22;20019;-91
2023/07/05 18:57:43;;;;;;;1.83;0.75;;;;;;;;;;13020277;22;20023;-90
2023/07/05 19:02:46;;;;;;;1.05;0.60;;;;;;;;;;13020216;22;20483;-91
2023/07/05 19:07:50;;;;;;;0.95;0.60;;;;;;;;;;13020241;22;20365;-90
2023/07/05 19:12:54;;;;;;;3.33;0.65;;;;;;;;;;13067649;22;20318;-90
2023/07/05 19:17:58;;;;;;;0.65;0.50;;;;;;;;;;13045569;22;20027;-90
2023/07/05 19:23:02;;;;;;;2.30;0.60;;;;;;;;;;13018762;22;20511;-90
2023/07/05 19:28:09;;;;;;;0.50;0.40;;;;;;;;;;13020733;22;20073;-90
2023/07/05 19:33:13;;;;;;;1.20;0.65;;;;;;;;;;13047846;22;20077;-90
2023/07/05 19:38:17;;;;;;;1.75;0.70;;;;;;;;;;13018873;22;20023;-90
2023/07/05 19:43:23;;;;;;;1.00;0.63;;;;;;;;;;13017741;22;20023;-90
2023/07/05 19:48:27;;;;;;;0.65;0.40;;;;;;;;;;13017867;22;20065;-90
2023/07/05 19:53:30;;;;;;;1.33;0.63;;;;;;;;;;13046143;22;20020;-90
2023/07/05 19:58:35;;;;;;;1.10;0.60;;;;;;;;;;13019114;22;20019;-90
2023/07/05 20:03:39;;;;;;;1.90;0.90;;;;;;;;;;13017558;22;20096;-89
2023/07/05 20:08:42;;;;;;;2.72;0.73;;;;;;;;;;13017458;22;20016;-90
2023/07/05 20:13:47;;;;;;;0.98;0.70;;;;;;;;;;13018373;22;20077;-90
2023/07/05 20:18:50;;;;;;;0.98;0.68;;;;;;;;;;13018020;22;20019;-89
2023/07/05 20:23:54;;;;;;;0.70;0.60;;;;;;;;;;13047409;22;20129;-90
2023/07/05 20:28:59;;;;;;;0.68;0.60;;;;;;;;;;13065172;22;20015;-89
2023/07/05 20:34:02;;;;;;;0.65;0.60;;;;;;;;;;13022258;22;20081;-89
2023/07/05 20:39:06;;;;;;;2.58;0.60;;;;;;;;;;13021901;22;20456;-90
2023/07/05 20:44:11;;;;;;;1.05;0.50;;;;;;;;;;13048667;22;20027;-89
2023/07/05 20:49:14;;;;;;;0.80;0.70;;;;;;;;;;13047510;22;20023;-89
2023/07/05 20:54:17;;;;;;;1.55;0.65;;;;;;;;;;13022129;22;20026;-89
2023/07/05 20:59:22;;;;;;;2.28;1.00;;;;;;;;;;13021437;22;20023;-90
2023/07/05 21:04:26;;;;;;;1.88;0.77;;;;;;;;;;13048920;22;20023;-89
2023/07/05 21:09:30;;;;;;;1.98;0.95;;;;;;;;;;13021539;22;20019;-90
2023/07/05 21:14:35;;;;;;;1.52;0.77;;;;;;;;;;13022093;22;20019;-89
2023/07/05 21:19:38;;;;;;;1.67;0.80;;;;;;;;;;13021125;22;20464;-90
2023/07/05 21:24:42;;;;;;;0.63;0.50;;;;;;;;;;13021155;22;20015;-90
2023/07/05 21:29:47;;;;;;;1.05;0.80;;;;;;;;;;13020741;22;20097;-90
2023/07/05 21:34:50;;;;;;;2.00;0.70;;;;;;;;;;13021446;22;20487;-90
2023/07/05 21:39:53;;;;;;;1.63;0.77;;;;;;;;;;13019462;22;20012;-89
2023/07/05 21:44:59;;;;;;;1.90;0.77;;;;;;;;;;13021055;22;20356;-90
2023/07/05 21:50:03;;;;;;;1.02;0.70;;;;;;;;;;13021704;22;20394;-90
2023/07/05 21:55:07;;;;;;;1.55;0.60;;;;;;;;;;13020532;22;20023;-90
2023/07/05 22:00:22;;;;;;;1.45;0.85;;;;;;;;;;13048039;22;20041;-88
2023/07/05 22:05:29;;;;;;;1.30;0.73;;;;;;;;;;13046466;22;20023;-89
2023/07/05 22:10:34;;;;;;;0.88;0.75;;;;;;;;;;13020583;22;20389;-89
2023/07/05 22:15:40;;;;;;;1.27;0.77;;;;;;;;;;13047412;22;20522;-90
2023/07/05 22:20:44;;;;;;;1.35;0.70;;;;;;;;;;13020488;22;20570;-89
2023/07/05 22:25:48;;;;;;;1.13;0.73;;;;;;;;;;13020547;22;20081;-89
2023/07/05 22:30:53;;;;;;;0.82;0.73;;;;;;;;;;13047741;22;20395;-88
